sensor_id;sensor_type;location;lat;lon;timestamp;pressure;altitude;pressure_sealevel;temperature;humidity
61035;BME280;46916;40.564;-7.958;2023-04-28T00:01:07;96970.41;;;21.22;52.81
61035;BME280;46916;40.564;-7.958;2023-04-28T00:03:08;96977.97;;;21.25;52.88
61035;BME280;46916;40.564;-7.958;2023-04-28T00:05:11;96978.19;;;21.23;52.93
61035;BME280;46916;40.564;-7.958;2023-04-28T00:07:12;96972.88;;;21.23;53.09
61035;BME280;46916;40.564;-7.958;2023-04-28T00:09:13;96975.53;;;21.23;52.97
61035;BME280;46916;40.564;-7.958;2023-04-28T00:11:14;96969.41;;;21.23;52.86
61035;BME280;46916;40.564;-7.958;2023-04-28T00:13:14;96974.28;;;21.26;53.17
61035;BME280;46916;40.564;-7.958;2023-04-28T00:15:15;96979.19;;;21.29;53.21
61035;BME280;46916;40.564;-7.958;2023-04-28T00:17:16;96972.03;;;21.30;53.45
61035;BME280;46916;40.564;-7.958;2023-04-28T00:19:17;96973.88;;;21.29;53.26
61035;BME280;46916;40.564;-7.958;2023-04-28T00:21:17;96973.88;;;21.29;53.41
61035;BME280;46916;40.564;-7.958;2023-04-28T00:23:18;96974.09;;;21.27;53.85
61035;BME280;46916;40.564;-7.958;2023-04-28T00:25:19;96977.56;;;21.28;54.21
61035;BME280;46916;40.564;-7.958;2023-04-28T00:27:19;96975.09;;;21.26;54.42
61035;BME280;46916;40.564;-7.958;2023-04-28T00:29:20;96972.88;;;21.23;54.53
61035;BME280;46916;40.564;-7.958;2023-04-28T00:31:23;96971.84;;;21.24;54.18
61035;BME280;46916;40.564;-7.958;2023-04-28T00:33:24;96975.72;;;21.22;54.30
61035;BME280;46916;40.564;-7.958;2023-04-28T00:35:25;96975.34;;;21.12;53.98
61035;BME280;46916;40.564;-7.958;2023-04-28T00:37:26;96967.34;;;21.05;54.06
61035;BME280;46916;40.564;-7.958;2023-04-28T00:39:27;96982.75;;;21.03;53.64
61035;BME280;46916;40.564;-7.958;2023-04-28T00:41:27;96978.03;;;20.98;53.66
61035;BME280;46916;40.564;-7.958;2023-04-28T00:43:28;96982.50;;;20.98;54.05
61035;BME280;46916;40.564;-7.958;2023-04-28T00:45:29;96985.41;;;20.96;54.55
61035;BME280;46916;40.564;-7.958;2023-04-28T00:47:35;96990.13;;;20.94;54.70
61035;BME280;46916;40.564;-7.958;2023-04-28T00:49:37;96973.31;;;20.87;55.02
61035;BME280;46916;40.564;-7.958;2023-04-28T00:51:38;96976.81;;;20.88;55.70
61035;BME280;46916;40.564;-7.958;2023-04-28T00:53:39;96977.03;;;20.86;55.71
61035;BME280;46916;40.564;-7.958;2023-04-28T00:55:43;96971.06;;;20.84;55.90
61035;BME280;46916;40.564;-7.958;2023-04-28T00:57:46;96967.59;;;20.77;56.37
61035;BME280;46916;40.564;-7.958;2023-04-28T00:59:47;96968.84;;;20.74;56.70
61035;BME280;46916;40.564;-7.958;2023-04-28T01:01:48;96967.38;;;20.72;56.91
61035;BME280;46916;40.564;-7.958;2023-04-28T01:03:52;96962.06;;;20.65;56.91
61035;BME280;46916;40.564;-7.958;2023-04-28T01:05:53;96953.69;;;20.55;57.83
61035;BME280;46916;40.564;-7.958;2023-04-28T01:07:54;96956.91;;;20.37;58.59
61035;BME280;46916;40.564;-7.958;2023-04-28T01:09:56;96961.81;;;20.27;58.86
61035;BME280;46916;40.564;-7.958;2023-04-28T01:12:04;96963.19;;;20.16;59.29
61035;BME280;46916;40.564;-7.958;2023-04-28T01:14:20;96958.69;;;20.03;59.56
61035;BME280;46916;40.564;-7.958;2023-04-28T01:16:21;96970.75;;;20.06;59.57
61035;BME280;46916;40.564;-7.958;2023-04-28T01:18:21;96973.63;;;20.11;59.75
61035;BME280;46916;40.564;-7.958;2023-04-28T01:20:25;96968.53;;;20.16;59.48
61035;BME280;46916;40.564;-7.958;2023-04-28T01:22:26;96967.50;;;20.24;59.19
61035;BME280;46916;40.564;-7.958;2023-04-28T01:24:27;96958.72;;;20.17;59.62
61035;BME280;46916;40.564;-7.958;2023-04-28T01:26:30;96954.00;;;20.19;59.46
61035;BME280;46916;40.564;-7.958;2023-04-28T01:28:31;96940.31;;;20.15;59.40
61035;BME280;46916;40.564;-7.958;2023-04-28T01:30:31;96934.16;;;20.15;59.20
61035;BME280;46916;40.564;-7.958;2023-04-28T01:32:32;96923.13;;;20.11;58.96
61035;BME280;46916;40.564;-7.958;2023-04-28T01:34:33;96914.97;;;20.13;59.03
61035;BME280;46916;40.564;-7.958;2023-04-28T01:36:34;96914.97;;;20.13;59.26
61035;BME280;46916;40.564;-7.958;2023-04-28T01:38:35;96909.84;;;20.04;59.69
61035;BME280;46916;40.564;-7.958;2023-04-28T01:40:35;96902.44;;;19.93;60.24
61035;BME280;46916;40.564;-7.958;2023-04-28T01:42:36;96909.16;;;19.83;60.67
61035;BME280;46916;40.564;-7.958;2023-04-28T01:44:37;96904.66;;;19.76;61.02
61035;BME280;46916;40.564;-7.958;2023-04-28T01:46:38;96897.25;;;19.65;61.47
61035;BME280;46916;40.564;-7.958;2023-04-28T01:48:39;96905.16;;;19.59;61.85
61035;BME280;46916;40.564;-7.958;2023-04-28T01:50:40;96895.53;;;19.51;61.87
61035;BME280;46916;40.564;-7.958;2023-04-28T01:52:41;96882.84;;;19.40;62.04
61035;BME280;46916;40.564;-7.958;2023-04-28T01:54:41;96876.25;;;19.29;62.30
61035;BME280;46916;40.564;-7.958;2023-04-28T01:56:43;96876.03;;;19.24;62.52
61035;BME280;46916;40.564;-7.958;2023-04-28T01:58:45;96875.41;;;19.22;62.71
61035;BME280;46916;40.564;-7.958;2023-04-28T02:00:46;96877.88;;;19.23;62.65
61035;BME280;46916;40.564;-7.958;2023-04-28T02:02:49;96864.97;;;19.14;62.71
61035;BME280;46916;40.564;-7.958;2023-04-28T02:04:50;96870.31;;;19.20;62.42
61035;BME280;46916;40.564;-7.958;2023-04-28T02:06:51;96860.72;;;19.26;62.12
61035;BME280;46916;40.564;-7.958;2023-04-28T02:08:52;96852.41;;;19.36;61.78
61035;BME280;46916;40.564;-7.958;2023-04-28T02:10:53;96854.28;;;19.48;61.70
61035;BME280;46916;40.564;-7.958;2023-04-28T02:12:55;96834.06;;;19.47;61.42
61035;BME280;46916;40.564;-7.958;2023-04-28T02:14:56;96827.16;;;19.60;61.40
61035;BME280;46916;40.564;-7.958;2023-04-28T02:16:57;96825.75;;;19.64;60.95
61035;BME280;46916;40.564;-7.958;2023-04-28T02:18:58;96814.09;;;19.71;60.70
61035;BME280;46916;40.564;-7.958;2023-04-28T02:21:11;96809.19;;;19.75;60.42
61035;BME280;46916;40.564;-7.958;2023-04-28T02:23:12;96810.03;;;19.82;60.19
61035;BME280;46916;40.564;-7.958;2023-04-28T02:25:12;96801.84;;;19.84;60.24
61035;BME280;46916;40.564;-7.958;2023-04-28T02:27:13;96795.94;;;19.82;60.18
61035;BME280;46916;40.564;-7.958;2023-04-28T02:29:14;96798.38;;;19.83;60.40
61035;BME280;46916;40.564;-7.958;2023-04-28T02:31:15;96805.13;;;19.86;60.44
61035;BME280;46916;40.564;-7.958;2023-04-28T02:33:16;96805.94;;;19.86;60.25
61035;BME280;46916;40.564;-7.958;2023-04-28T02:35:17;96799.59;;;19.87;60.17
61035;BME280;46916;40.564;-7.958;2023-04-28T02:37:17;96798.38;;;19.90;60.42
61035;BME280;46916;40.564;-7.958;2023-04-28T02:39:23;96804.72;;;19.89;60.12
61035;BME280;46916;40.564;-7.958;2023-04-28T02:41:29;96806.56;;;19.88;60.40
61035;BME280;46916;40.564;-7.958;2023-04-28T02:43:31;96815.16;;;19.90;60.13
61035;BME280;46916;40.564;-7.958;2023-04-28T02:45:32;96813.91;;;19.86;60.41
61035;BME280;46916;40.564;-7.958;2023-04-28T02:47:33;96818.84;;;19.89;60.45
61035;BME280;46916;40.564;-7.958;2023-04-28T02:49:34;96824.16;;;19.89;60.38
61035;BME280;46916;40.564;-7.958;2023-04-28T02:51:35;96822.53;;;19.88;60.41
61035;BME280;46916;40.564;-7.958;2023-04-28T02:53:36;96820.03;;;19.87;60.10
61035;BME280;46916;40.564;-7.958;2023-04-28T02:55:36;96833.16;;;19.88;60.48
61035;BME280;46916;40.564;-7.958;2023-04-28T02:57:37;96826.19;;;19.81;60.73
61035;BME280;46916;40.564;-7.958;2023-04-28T02:59:38;96844.78;;;19.87;60.34
61035;BME280;46916;40.564;-7.958;2023-04-28T03:01:39;96841.09;;;19.82;60.51
61035;BME280;46916;40.564;-7.958;2023-04-28T03:03:39;96834.97;;;19.81;60.49
61035;BME280;46916;40.564;-7.958;2023-04-28T03:05:40;96837.81;;;19.79;60.67
61035;BME280;46916;40.564;-7.958;2023-04-28T03:07:44;96841.31;;;19.80;60.86
61035;BME280;46916;40.564;-7.958;2023-04-28T03:09:45;96826.97;;;19.74;60.91
61035;BME280;46916;40.564;-7.958;2023-04-28T03:11:45;96833.94;;;19.75;61.11
61035;BME280;46916;40.564;-7.958;2023-04-28T03:13:47;96827.78;;;19.75;61.12
61035;BME280;46916;40.564;-7.958;2023-04-28T03:15:48;96815.94;;;19.71;61.10
61035;BME280;46916;40.564;-7.958;2023-04-28T03:17:49;96815.94;;;19.71;61.38
61035;BME280;46916;40.564;-7.958;2023-04-28T03:19:49;96811.84;;;19.75;61.25
61035;BME280;46916;40.564;-7.958;2023-04-28T03:21:50;96811.84;;;19.75;61.06
61035;BME280;46916;40.564;-7.958;2023-04-28T03:23:53;96815.16;;;19.77;61.06
61035;BME280;46916;40.564;-7.958;2023-04-28T03:25:55;96813.50;;;19.76;61.13
61035;BME280;46916;40.564;-7.958;2023-04-28T03:27:55;96817.16;;;19.75;60.87
61035;BME280;46916;40.564;-7.958;2023-04-28T03:29:57;96815.16;;;19.77;61.06
61035;BME280;46916;40.564;-7.958;2023-04-28T03:31:58;96820.84;;;19.74;60.80
61035;BME280;46916;40.564;-7.958;2023-04-28T03:33:59;96820.25;;;19.72;60.84
61035;BME280;46916;40.564;-7.958;2023-04-28T03:36:00;96828.22;;;19.72;60.81
61035;BME280;46916;40.564;-7.958;2023-04-28T03:38:00;96831.06;;;19.70;60.88
61035;BME280;46916;40.564;-7.958;2023-04-28T03:40:04;96826.16;;;19.67;60.77
61035;BME280;46916;40.564;-7.958;2023-04-28T03:42:17;96820.00;;;19.67;60.54
61035;BME280;46916;40.564;-7.958;2023-04-28T03:44:44;96822.66;;;19.60;60.61
61035;BME280;46916;40.564;-7.958;2023-04-28T03:46:46;96830.38;;;19.55;60.81
61035;BME280;46916;40.564;-7.958;2023-04-28T03:48:48;96830.16;;;19.43;60.97
61035;BME280;46916;40.564;-7.958;2023-04-28T03:50:52;96818.25;;;19.26;61.02
61035;BME280;46916;40.564;-7.958;2023-04-28T03:52:56;96816.19;;;19.15;61.27
61035;BME280;46916;40.564;-7.958;2023-04-28T03:54:58;96822.91;;;19.11;61.19
61035;BME280;46916;40.564;-7.958;2023-04-28T03:56:58;96820.44;;;19.02;61.49
61035;BME280;46916;40.564;-7.958;2023-04-28T03:59:00;96822.22;;;18.95;61.50
61035;BME280;46916;40.564;-7.958;2023-04-28T04:01:00;96820.94;;;18.85;61.45
61035;BME280;46916;40.564;-7.958;2023-04-28T04:03:01;96804.59;;;18.81;61.56
61035;BME280;46916;40.564;-7.958;2023-04-28T04:05:02;96808.91;;;18.89;61.27
61035;BME280;46916;40.564;-7.958;2023-04-28T04:07:04;96820.50;;;18.81;61.21
61035;BME280;46916;40.564;-7.958;2023-04-28T04:09:05;96821.44;;;18.67;61.51
61035;BME280;46916;40.564;-7.958;2023-04-28T04:11:07;96822.84;;;18.63;61.44
61035;BME280;46916;40.564;-7.958;2023-04-28T04:13:08;96820.78;;;18.65;61.38
61035;BME280;46916;40.564;-7.958;2023-04-28T04:15:09;96822.63;;;18.64;61.48
61035;BME280;46916;40.564;-7.958;2023-04-28T04:17:10;96832.84;;;18.67;61.45
61035;BME280;46916;40.564;-7.958;2023-04-28T04:19:11;96827.34;;;18.69;61.55
61035;BME280;46916;40.564;-7.958;2023-04-28T04:21:14;96839.38;;;18.65;61.86
61035;BME280;46916;40.564;-7.958;2023-04-28T04:23:15;96842.97;;;18.57;61.72
61035;BME280;46916;40.564;-7.958;2023-04-28T04:25:16;96844.50;;;18.66;61.38
61035;BME280;46916;40.564;-7.958;2023-04-28T04:27:21;96847.25;;;18.79;61.06
61035;BME280;46916;40.564;-7.958;2023-04-28T04:29:22;96848.31;;;18.92;60.92
61035;BME280;46916;40.564;-7.958;2023-04-28T04:31:22;96853.69;;;18.98;60.49
61035;BME280;46916;40.564;-7.958;2023-04-28T04:33:24;96847.97;;;19.01;60.48
61035;BME280;46916;40.564;-7.958;2023-04-28T04:35:25;96855.75;;;19.03;60.66
61035;BME280;46916;40.564;-7.958;2023-04-28T04:37:26;96845.94;;;19.03;60.46
61035;BME280;46916;40.564;-7.958;2023-04-28T04:39:31;96849.19;;;19.05;60.47
61035;BME280;46916;40.564;-7.958;2023-04-28T04:41:32;96849.41;;;19.04;60.50
61035;BME280;46916;40.564;-7.958;2023-04-28T04:43:52;96841.84;;;19.01;60.49
61035;BME280;46916;40.564;-7.958;2023-04-28T04:45:53;96837.16;;;19.03;60.54
61035;BME280;46916;40.564;-7.958;2023-04-28T04:47:54;96848.78;;;19.02;60.47
61035;BME280;46916;40.564;-7.958;2023-04-28T04:49:58;96850.38;;;18.96;60.39
61035;BME280;46916;40.564;-7.958;2023-04-28T04:51:58;96842.22;;;18.91;60.51
61035;BME280;46916;40.564;-7.958;2023-04-28T04:54:02;96846.53;;;18.99;60.25
61035;BME280;46916;40.564;-7.958;2023-04-28T04:56:03;96845.31;;;19.01;60.01
61035;BME280;46916;40.564;-7.958;2023-04-28T04:58:06;96834.47;;;18.96;60.05
61035;BME280;46916;40.564;-7.958;2023-04-28T05:00:29;96843.47;;;18.95;60.34
61035;BME280;46916;40.564;-7.958;2023-04-28T05:02:30;96836.47;;;18.88;60.25
61035;BME280;46916;40.564;-7.958;2023-04-28T05:04:31;96838.50;;;18.86;60.24
61035;BME280;46916;40.564;-7.958;2023-04-28T05:06:32;96836.44;;;18.81;60.35
61035;BME280;46916;40.564;-7.958;2023-04-28T05:08:33;96850.94;;;18.85;60.33
61035;BME280;46916;40.564;-7.958;2023-04-28T05:10:33;96849.53;;;18.89;60.32
61035;BME280;46916;40.564;-7.958;2023-04-28T05:12:36;96858.56;;;18.95;60.27
61035;BME280;46916;40.564;-7.958;2023-04-28T05:14:38;96856.91;;;18.94;60.34
61035;BME280;46916;40.564;-7.958;2023-04-28T05:16:38;96852.63;;;18.93;60.30
61035;BME280;46916;40.564;-7.958;2023-04-28T05:18:57;96860.56;;;18.93;60.23
61035;BME280;46916;40.564;-7.958;2023-04-28T05:20:58;96867.72;;;18.92;60.35
61035;BME280;46916;40.564;-7.958;2023-04-28T05:22:58;96866.47;;;18.88;60.45
61035;BME280;46916;40.564;-7.958;2023-04-28T05:24:59;96867.94;;;18.91;60.39
61035;BME280;46916;40.564;-7.958;2023-04-28T05:27:00;96873.84;;;18.93;60.28
61035;BME280;46916;40.564;-7.958;2023-04-28T05:29:01;96880.97;;;18.92;60.37
61035;BME280;46916;40.564;-7.958;2023-04-28T05:31:02;96881.81;;;18.93;60.41
61035;BME280;46916;40.564;-7.958;2023-04-28T05:33:05;96905.06;;;18.91;60.58
61035;BME280;46916;40.564;-7.958;2023-04-28T05:35:06;96903.00;;;18.86;60.76
61035;BME280;46916;40.564;-7.958;2023-04-28T05:37:07;96909.28;;;18.78;60.94
61035;BME280;46916;40.564;-7.958;2023-04-28T05:39:10;96912.53;;;18.74;61.29
61035;BME280;46916;40.564;-7.958;2023-04-28T05:41:12;96920.84;;;18.71;61.67
61035;BME280;46916;40.564;-7.958;2023-04-28T05:43:14;96937.59;;;18.71;61.93
61035;BME280;46916;40.564;-7.958;2023-04-28T05:45:16;96936.09;;;18.69;61.85
61035;BME280;46916;40.564;-7.958;2023-04-28T05:47:17;96941.97;;;18.64;62.22
61035;BME280;46916;40.564;-7.958;2023-04-28T05:49:18;96941.53;;;18.61;62.42
61035;BME280;46916;40.564;-7.958;2023-04-28T05:51:19;96933.34;;;18.55;62.57
61035;BME280;46916;40.564;-7.958;2023-04-28T05:53:21;96928.03;;;18.55;62.66
61035;BME280;46916;40.564;-7.958;2023-04-28T05:55:23;96942.13;;;18.56;62.93
61035;BME280;46916;40.564;-7.958;2023-04-28T05:57:25;96941.06;;;18.50;63.09
61035;BME280;46916;40.564;-7.958;2023-04-28T05:59:25;96926.56;;;18.46;63.09
61035;BME280;46916;40.564;-7.958;2023-04-28T06:01:28;96937.41;;;18.51;63.19
61035;BME280;46916;40.564;-7.958;2023-04-28T06:03:29;96924.34;;;18.50;63.18
61035;BME280;46916;40.564;-7.958;2023-04-28T06:05:30;96924.72;;;18.47;63.09
61035;BME280;46916;40.564;-7.958;2023-04-28T06:07:31;96920.22;;;18.47;63.36
61035;BME280;46916;40.564;-7.958;2023-04-28T06:09:31;96914.94;;;18.47;63.39
61035;BME280;46916;40.564;-7.958;2023-04-28T06:11:33;96917.81;;;18.52;63.37
61035;BME280;46916;40.564;-7.958;2023-04-28T06:13:37;96921.09;;;18.54;63.37
61035;BME280;46916;40.564;-7.958;2023-04-28T06:15:38;96908.03;;;18.53;63.27
61035;BME280;46916;40.564;-7.958;2023-04-28T06:17:38;96899.84;;;18.48;63.61
61035;BME280;46916;40.564;-7.958;2023-04-28T06:19:39;96889.81;;;18.43;63.85
61035;BME280;46916;40.564;-7.958;2023-04-28T06:21:40;96886.94;;;18.45;63.83
61035;BME280;46916;40.564;-7.958;2023-04-28T06:23:43;96893.13;;;18.52;63.88
61035;BME280;46916;40.564;-7.958;2023-04-28T06:25:44;96906.06;;;18.62;63.77
61035;BME280;46916;40.564;-7.958;2023-04-28T06:27:47;96908.97;;;18.67;63.58
61035;BME280;46916;40.564;-7.958;2023-04-28T06:29:48;96900.44;;;18.71;63.46
61035;BME280;46916;40.564;-7.958;2023-04-28T06:31:48;96903.72;;;18.73;64.44
61035;BME280;46916;40.564;-7.958;2023-04-28T06:33:49;96900.69;;;18.76;63.64
61035;BME280;46916;40.564;-7.958;2023-04-28T06:35:51;96914.38;;;18.80;63.62
61035;BME280;46916;40.564;-7.958;2023-04-28T06:37:52;96922.84;;;18.90;63.62
61035;BME280;46916;40.564;-7.958;2023-04-28T06:39:54;96927.13;;;18.98;63.11
61035;BME280;46916;40.564;-7.958;2023-04-28T06:41:54;96942.72;;;19.08;63.16
61035;BME280;46916;40.564;-7.958;2023-04-28T06:43:57;96944.78;;;19.12;63.35
61035;BME280;46916;40.564;-7.958;2023-04-28T06:46:00;96953.41;;;19.21;63.02
61035;BME280;46916;40.564;-7.958;2023-04-28T06:48:02;96967.94;;;19.25;63.04
61035;BME280;46916;40.564;-7.958;2023-04-28T06:50:03;96960.63;;;19.27;63.33
61035;BME280;46916;40.564;-7.958;2023-04-28T06:52:08;96965.72;;;19.28;63.38
61035;BME280;46916;40.564;-7.958;2023-04-28T06:54:09;96948.16;;;19.27;63.72
61035;BME280;46916;40.564;-7.958;2023-04-28T06:56:12;96947.13;;;19.28;64.08
61035;BME280;46916;40.564;-7.958;2023-04-28T06:58:13;96955.75;;;19.37;64.01
61035;BME280;46916;40.564;-7.958;2023-04-28T07:00:15;96955.53;;;19.39;63.82
61035;BME280;46916;40.564;-7.958;2023-04-28T07:02:18;96961.72;;;19.46;64.30
61035;BME280;46916;40.564;-7.958;2023-04-28T07:04:22;96969.91;;;19.51;63.92
61035;BME280;46916;40.564;-7.958;2023-04-28T07:06:23;96973.81;;;19.55;63.77
61035;BME280;46916;40.564;-7.958;2023-04-28T07:08:24;96978.72;;;19.51;63.48
61035;BME280;46916;40.564;-7.958;2023-04-28T07:10:25;96993.41;;;19.47;63.32
61035;BME280;46916;40.564;-7.958;2023-04-28T07:12:26;96987.81;;;19.36;63.58
61035;BME280;46916;40.564;-7.958;2023-04-28T07:14:30;96991.97;;;19.17;63.88
61035;BME280;46916;40.564;-7.958;2023-04-28T07:16:31;97002.75;;;19.09;64.42
61035;BME280;46916;40.564;-7.958;2023-04-28T07:18:31;97004.00;;;19.13;65.51
61035;BME280;46916;40.564;-7.958;2023-04-28T07:20:32;97017.66;;;19.10;64.00
61035;BME280;46916;40.564;-7.958;2023-04-28T07:22:32;97022.34;;;19.08;64.27
61035;BME280;46916;40.564;-7.958;2023-04-28T07:24:33;97024.13;;;19.00;63.42
61035;BME280;46916;40.564;-7.958;2023-04-28T07:26:34;97029.72;;;18.84;63.54
61035;BME280;46916;40.564;-7.958;2023-04-28T07:28:35;97039.00;;;18.73;63.63
61035;BME280;46916;40.564;-7.958;2023-04-28T07:30:36;97045.88;;;18.68;64.61
61035;BME280;46916;40.564;-7.958;2023-04-28T07:32:37;97036.31;;;18.52;64.67
61035;BME280;46916;40.564;-7.958;2023-04-28T07:34:37;97037.38;;;18.36;65.01
61035;BME280;46916;40.564;-7.958;2023-04-28T07:36:38;97039.34;;;18.27;65.89
61035;BME280;46916;40.564;-7.958;2023-04-28T07:38:39;97046.09;;;18.30;66.02
61035;BME280;46916;40.564;-7.958;2023-04-28T07:40:41;97049.09;;;18.42;66.42
61035;BME280;46916;40.564;-7.958;2023-04-28T07:42:43;97055.09;;;18.50;66.38
61035;BME280;46916;40.564;-7.958;2023-04-28T07:44:44;97058.44;;;18.59;66.38
61035;BME280;46916;40.564;-7.958;2023-04-28T07:46:45;97062.88;;;18.73;65.76
61035;BME280;46916;40.564;-7.958;2023-04-28T07:48:45;97061.31;;;18.79;65.51
61035;BME280;46916;40.564;-7.958;2023-04-28T07:50:46;97053.66;;;18.91;65.30
61035;BME280;46916;40.564;-7.958;2023-04-28T07:52:47;97060.66;;;18.98;65.12
61035;BME280;46916;40.564;-7.958;2023-04-28T07:54:48;97063.94;;;19.00;64.80
61035;BME280;46916;40.564;-7.958;2023-04-28T07:56:49;97075.19;;;19.02;65.03
61035;BME280;46916;40.564;-7.958;2023-04-28T07:58:50;97076.81;;;19.03;64.82
61035;BME280;46916;40.564;-7.958;2023-04-28T08:00:51;97087.31;;;19.12;64.99
61035;BME280;46916;40.564;-7.958;2023-04-28T08:02:52;97088.38;;;19.17;64.90
61035;BME280;46916;40.564;-7.958;2023-04-28T08:04:53;97092.91;;;19.23;64.71
61035;BME280;46916;40.564;-7.958;2023-04-28T08:06:54;97091.38;;;19.36;64.66
61035;BME280;46916;40.564;-7.958;2023-04-28T08:08:55;97091.22;;;19.44;64.51
61035;BME280;46916;40.564;-7.958;2023-04-28T08:10:55;97098.63;;;19.55;64.58
61035;BME280;46916;40.564;-7.958;2023-04-28T08:12:57;97102.53;;;19.59;63.76
61035;BME280;46916;40.564;-7.958;2023-04-28T08:14:58;97104.16;;;19.53;63.91
61035;BME280;46916;40.564;-7.958;2023-04-28T08:16:59;97111.44;;;19.45;64.39
61035;BME280;46916;40.564;-7.958;2023-04-28T08:19:00;97109.63;;;19.45;64.37
61035;BME280;46916;40.564;-7.958;2023-04-28T08:21:01;97112.06;;;19.47;64.75
61035;BME280;46916;40.564;-7.958;2023-04-28T08:23:02;97113.72;;;19.48;64.68
61035;BME280;46916;40.564;-7.958;2023-04-28T08:25:03;97109.63;;;19.45;65.20
61035;BME280;46916;40.564;-7.958;2023-04-28T08:27:04;97122.28;;;19.43;64.76
61035;BME280;46916;40.564;-7.958;2023-04-28T08:29:05;97124.00;;;19.29;65.46
61035;BME280;46916;40.564;-7.958;2023-04-28T08:31:05;97134.31;;;19.18;65.56
61035;BME280;46916;40.564;-7.958;2023-04-28T08:33:07;97137.66;;;19.26;65.96
61035;BME280;46916;40.564;-7.958;2023-04-28T08:35:10;97123.41;;;19.34;65.73
61035;BME280;46916;40.564;-7.958;2023-04-28T08:37:11;97128.88;;;19.54;65.39
61035;BME280;46916;40.564;-7.958;2023-04-28T08:39:12;97135.91;;;19.62;65.27
61035;BME280;46916;40.564;-7.958;2023-04-28T08:41:15;97138.56;;;19.62;65.55
61035;BME280;46916;40.564;-7.958;2023-04-28T08:43:16;97128.00;;;19.47;65.69
61035;BME280;46916;40.564;-7.958;2023-04-28T08:45:17;97125.69;;;19.37;66.29
61035;BME280;46916;40.564;-7.958;2023-04-28T08:47:19;97126.50;;;19.38;66.33
61035;BME280;46916;40.564;-7.958;2023-04-28T08:49:22;97129.81;;;19.40;66.71
61035;BME280;46916;40.564;-7.958;2023-04-28T08:51:33;97138.00;;;19.45;66.70
61035;BME280;46916;40.564;-7.958;2023-04-28T08:53:37;97126.75;;;19.43;66.68
61035;BME280;46916;40.564;-7.958;2023-04-28T08:55:38;97126.44;;;19.52;66.74
61035;BME280;46916;40.564;-7.958;2023-04-28T08:57:48;97135.91;;;19.62;66.49
61035;BME280;46916;40.564;-7.958;2023-04-28T08:59:51;97134.50;;;19.66;66.64
61035;BME280;46916;40.564;-7.958;2023-04-28T09:01:52;97137.75;;;19.61;67.01
61035;BME280;46916;40.564;-7.958;2023-04-28T09:03:53;97140.19;;;19.63;66.56
61035;BME280;46916;40.564;-7.958;2023-04-28T09:05:54;97141.47;;;19.67;66.67
61035;BME280;46916;40.564;-7.958;2023-04-28T09:07:55;97153.53;;;19.69;66.51
61035;BME280;46916;40.564;-7.958;2023-04-28T09:10:15;97152.41;;;19.57;67.29
61035;BME280;46916;40.564;-7.958;2023-04-28T09:12:17;97165.03;;;19.55;67.42
61035;BME280;46916;40.564;-7.958;2023-04-28T09:14:18;97160.31;;;19.50;67.84
61035;BME280;46916;40.564;-7.958;2023-04-28T09:16:19;97164.50;;;19.60;67.48
61035;BME280;46916;40.564;-7.958;2023-04-28T09:18:20;97173.44;;;19.59;67.48
61035;BME280;46916;40.564;-7.958;2023-04-28T09:20:22;97168.84;;;19.46;67.89
61035;BME280;46916;40.564;-7.958;2023-04-28T09:22:27;97175.81;;;19.47;67.68
61035;BME280;46916;40.564;-7.958;2023-04-28T09:24:29;97183.03;;;19.53;67.89
61035;BME280;46916;40.564;-7.958;2023-04-28T09:26:56;97184.84;;;19.52;68.13
61035;BME280;46916;40.564;-7.958;2023-04-28T09:29:11;97174.72;;;19.63;67.99
61035;BME280;46916;40.564;-7.958;2023-04-28T09:31:23;97190.78;;;19.76;67.96
61035;BME280;46916;40.564;-7.958;2023-04-28T09:33:28;97187.16;;;19.84;67.97
61035;BME280;46916;40.564;-7.958;2023-04-28T09:35:39;97205.50;;;19.78;67.63
61035;BME280;46916;40.564;-7.958;2023-04-28T09:37:40;97206.75;;;19.76;68.07
61035;BME280;46916;40.564;-7.958;2023-04-28T09:39:44;97198.38;;;19.79;67.80
61035;BME280;46916;40.564;-7.958;2023-04-28T09:41:45;97204.22;;;19.68;68.24
61035;BME280;46916;40.564;-7.958;2023-04-28T09:43:46;97198.66;;;19.63;68.25
61035;BME280;46916;40.564;-7.958;2023-04-28T09:45:47;97206.69;;;19.69;68.71
61035;BME280;46916;40.564;-7.958;2023-04-28T09:47:48;97202.03;;;19.78;68.29
61035;BME280;46916;40.564;-7.958;2023-04-28T09:49:56;97216.44;;;19.90;67.81
61035;BME280;46916;40.564;-7.958;2023-04-28T09:52:11;97213.03;;;19.96;67.58
61035;BME280;46916;40.564;-7.958;2023-04-28T09:54:12;97213.25;;;20.01;67.88
61035;BME280;46916;40.564;-7.958;2023-04-28T09:56:15;97201.66;;;20.09;67.49
61035;BME280;46916;40.564;-7.958;2023-04-28T09:58:21;97210.47;;;20.16;66.77
61035;BME280;46916;40.564;-7.958;2023-04-28T10:00:23;97213.81;;;20.25;66.46
61035;BME280;46916;40.564;-7.958;2023-04-28T10:02:24;97210.34;;;20.31;66.24
61035;BME280;46916;40.564;-7.958;2023-04-28T10:04:26;97219.97;;;20.32;66.55
61035;BME280;46916;40.564;-7.958;2023-04-28T10:06:32;97223.03;;;20.29;66.92
61035;BME280;46916;40.564;-7.958;2023-04-28T10:08:34;97213.44;;;20.35;66.92
61035;BME280;46916;40.564;-7.958;2023-04-28T10:10:36;97222.28;;;20.42;66.55
61035;BME280;46916;40.564;-7.958;2023-04-28T10:12:41;97217.00;;;20.48;66.18
61035;BME280;46916;40.564;-7.958;2023-04-28T10:14:46;97218.88;;;20.55;66.24
61035;BME280;46916;40.564;-7.958;2023-04-28T10:16:49;97217.41;;;20.45;67.19
61035;BME280;46916;40.564;-7.958;2023-04-28T10:18:52;97215.72;;;20.44;67.42
61035;BME280;46916;40.564;-7.958;2023-04-28T10:21:00;97219.78;;;20.34;67.99
61035;BME280;46916;40.564;-7.958;2023-04-28T10:25:36;97225.53;;;20.37;68.01
61035;BME280;46916;40.564;-7.958;2023-04-28T10:27:42;97222.06;;;20.43;67.59
61035;BME280;46916;40.564;-7.958;2023-04-28T10:29:44;97228.22;;;20.44;68.39
61035;BME280;46916;40.564;-7.958;2023-04-28T10:32:14;97227.66;;;20.48;67.65
61035;BME280;46916;40.564;-7.958;2023-04-28T10:34:23;97230.94;;;20.50;67.57
61035;BME280;46916;40.564;-7.958;2023-04-28T10:36:50;97224.72;;;20.43;67.88
61035;BME280;46916;40.564;-7.958;2023-04-28T10:39:10;97225.53;;;20.37;67.98
61035;BME280;46916;40.564;-7.958;2023-04-28T10:41:30;97223.09;;;20.42;68.22
61035;BME280;46916;40.564;-7.958;2023-04-28T10:43:34;97212.88;;;20.46;68.76